sensor_id;sensor_type;location;lat;lon;timestamp;pressure;altitude;pressure_sealevel;temperature;humidity
20630;BME280;17386;43.846;25.950;2022-07-18T00:01:30;101793.63;;;23.23;39.74
20630;BME280;17386;43.846;25.950;2022-07-18T00:03:56;101791.78;;;23.23;39.83
20630;BME280;17386;43.846;25.950;2022-07-18T00:06:22;101795.25;;;23.12;40.12
20630;BME280;17386;43.846;25.950;2022-07-18T00:08:47;101796.88;;;23.15;39.96
20630;BME280;17386;43.846;25.950;2022-07-18T00:11:13;101805.56;;;23.07;40.20
20630;BME280;17386;43.846;25.950;2022-07-18T00:13:38;101819.75;;;23.11;40.45
20630;BME280;17386;43.846;25.950;2022-07-18T00:16:04;101824.00;;;23.02;40.55
20630;BME280;17386;43.846;25.950;2022-07-18T00:18:29;101827.34;;;23.06;40.45
20630;BME280;17386;43.846;25.950;2022-07-18T00:20:55;101819.44;;;23.03;40.56
20630;BME280;17386;43.846;25.950;2022-07-18T00:23:20;101833.22;;;23.00;40.74
20630;BME280;17386;43.846;25.950;2022-07-18T00:25:46;101825.97;;;23.00;40.56
20630;BME280;17386;43.846;25.950;2022-07-18T00:28:11;101829.97;;;22.95;40.56
20630;BME280;17386;43.846;25.950;2022-07-18T00:30:38;101826.59;;;23.04;40.51
20630;BME280;17386;43.846;25.950;2022-07-18T00:33:03;101831.03;;;22.92;40.30
20630;BME280;17386;43.846;25.950;2022-07-18T00:35:29;101831.53;;;22.84;40.31
20630;BME280;17386;43.846;25.950;2022-07-18T00:37:54;101838.63;;;22.87;40.21
20630;BME280;17386;43.846;25.950;2022-07-18T00:40:20;101852.34;;;22.84;40.47
20630;BME280;17386;43.846;25.950;2022-07-18T00:42:45;101852.25;;;22.73;40.55
20630;BME280;17386;43.846;25.950;2022-07-18T00:45:11;101851.38;;;22.72;40.46
20630;BME280;17386;43.846;25.950;2022-07-18T00:47:36;101858.72;;;22.70;40.65
20630;BME280;17386;43.846;25.950;2022-07-18T00:50:02;101861.00;;;22.76;40.54
20630;BME280;17386;43.846;25.950;2022-07-18T00:52:31;101860.44;;;22.71;40.73
20630;BME280;17386;43.846;25.950;2022-07-18T00:54:56;101856.53;;;22.62;40.70
20630;BME280;17386;43.846;25.950;2022-07-18T00:57:22;101870.84;;;22.64;40.76
20630;BME280;17386;43.846;25.950;2022-07-18T00:59:47;101874.00;;;22.71;40.75
20630;BME280;17386;43.846;25.950;2022-07-18T01:02:31;101871.72;;;22.65;40.94
20630;BME280;17386;43.846;25.950;2022-07-18T01:04:56;101864.44;;;22.53;41.01
20630;BME280;17386;43.846;25.950;2022-07-18T01:07:22;101857.28;;;22.52;41.18
20630;BME280;17386;43.846;25.950;2022-07-18T01:09:47;101867.03;;;22.54;40.94
20630;BME280;17386;43.846;25.950;2022-07-18T01:12:13;101868.56;;;22.58;40.76
20630;BME280;17386;43.846;25.950;2022-07-18T01:14:40;101864.88;;;22.59;40.93
20630;BME280;17386;43.846;25.950;2022-07-18T01:17:13;101875.50;;;22.62;40.87
20630;BME280;17386;43.846;25.950;2022-07-18T01:19:39;101869.31;;;22.60;40.98
20630;BME280;17386;43.846;25.950;2022-07-18T01:22:04;101872.91;;;22.61;41.06
20630;BME280;17386;43.846;25.950;2022-07-18T01:24:29;101870.91;;;22.50;41.31
20630;BME280;17386;43.846;25.950;2022-07-18T01:26:55;101873.50;;;22.39;41.51
20630;BME280;17386;43.846;25.950;2022-07-18T01:29:20;101880.22;;;22.46;41.41
20630;BME280;17386;43.846;25.950;2022-07-18T01:31:46;101868.94;;;22.39;41.53
20630;BME280;17386;43.846;25.950;2022-07-18T01:34:11;101877.81;;;22.42;41.50
20630;BME280;17386;43.846;25.950;2022-07-18T01:36:38;101889.75;;;22.39;41.47
20630;BME280;17386;43.846;25.950;2022-07-18T01:39:04;101883.88;;;22.32;41.46
20630;BME280;17386;43.846;25.950;2022-07-18T01:41:29;101886.97;;;22.26;41.61
20630;BME280;17386;43.846;25.950;2022-07-18T01:43:54;101893.03;;;22.17;41.64
20630;BME280;17386;43.846;25.950;2022-07-18T01:46:20;101889.44;;;22.17;41.92
20630;BME280;17386;43.846;25.950;2022-07-18T01:48:46;101886.53;;;22.20;41.71
20630;BME280;17386;43.846;25.950;2022-07-18T01:51:11;101884.34;;;22.12;41.77
20630;BME280;17386;43.846;25.950;2022-07-18T01:53:41;101883.34;;;22.13;41.96
20630;BME280;17386;43.846;25.950;2022-07-18T01:56:07;101887.78;;;22.14;41.78
20630;BME280;17386;43.846;25.950;2022-07-18T01:58:33;101894.75;;;22.18;41.90
20630;BME280;17386;43.846;25.950;2022-07-18T02:00:59;101894.47;;;22.08;41.94
20630;BME280;17386;43.846;25.950;2022-07-18T02:03:24;101887.91;;;21.98;42.09
20630;BME280;17386;43.846;25.950;2022-07-18T02:05:49;101900.69;;;21.96;42.23
20630;BME280;17386;43.846;25.950;2022-07-18T02:08:15;101899.41;;;21.88;42.30
20630;BME280;17386;43.846;25.950;2022-07-18T02:10:40;101890.25;;;21.90;42.27
20630;BME280;17386;43.846;25.950;2022-07-18T02:13:06;101901.38;;;21.85;42.42
20630;BME280;17386;43.846;25.950;2022-07-18T02:15:31;101897.69;;;21.87;42.38
20630;BME280;17386;43.846;25.950;2022-07-18T02:17:57;101901.84;;;21.92;42.44
20630;BME280;17386;43.846;25.950;2022-07-18T02:20:23;101914.38;;;21.93;42.40
20630;BME280;17386;43.846;25.950;2022-07-18T02:22:48;101909.13;;;21.77;42.45
20630;BME280;17386;43.846;25.950;2022-07-18T02:25:14;101913.66;;;21.77;42.69
20630;BME280;17386;43.846;25.950;2022-07-18T02:27:39;101915.38;;;21.78;42.67
20630;BME280;17386;43.846;25.950;2022-07-18T02:30:07;101926.50;;;21.73;42.86
20630;BME280;17386;43.846;25.950;2022-07-18T02:32:32;101929.41;;;21.70;42.79
20630;BME280;17386;43.846;25.950;2022-07-18T02:35:00;101928.44;;;21.71;43.10
20630;BME280;17386;43.846;25.950;2022-07-18T02:37:25;101935.78;;;21.69;42.99
20630;BME280;17386;43.846;25.950;2022-07-18T02:39:50;101944.19;;;21.65;43.44
20630;BME280;17386;43.846;25.950;2022-07-18T02:42:16;101946.13;;;21.63;43.40
20630;BME280;17386;43.846;25.950;2022-07-18T02:44:41;101951.44;;;21.64;43.38
20630;BME280;17386;43.846;25.950;2022-07-18T02:47:07;101957.69;;;21.65;43.55
20630;BME280;17386;43.846;25.950;2022-07-18T02:49:32;101955.38;;;21.58;43.66
20630;BME280;17386;43.846;25.950;2022-07-18T02:52:07;101971.72;;;21.57;43.62
20630;BME280;17386;43.846;25.950;2022-07-18T02:54:35;101975.00;;;21.62;43.58
20630;BME280;17386;43.846;25.950;2022-07-18T02:57:01;101973.22;;;21.61;43.70
20630;BME280;17386;43.846;25.950;2022-07-18T02:59:27;101988.31;;;21.65;43.48
20630;BME280;17386;43.846;25.950;2022-07-18T03:01:53;101983.88;;;21.64;43.71
20630;BME280;17386;43.846;25.950;2022-07-18T03:04:19;101989.47;;;21.61;43.73
20630;BME280;17386;43.846;25.950;2022-07-18T03:06:45;102000.19;;;21.48;44.00
20630;BME280;17386;43.846;25.950;2022-07-18T03:09:11;101999.97;;;21.37;44.08
20630;BME280;17386;43.846;25.950;2022-07-18T03:11:37;101994.94;;;21.31;44.32
20630;BME280;17386;43.846;25.950;2022-07-18T03:14:02;101995.03;;;21.29;44.26
20630;BME280;17386;43.846;25.950;2022-07-18T03:16:28;102005.22;;;21.24;44.61
20630;BME280;17386;43.846;25.950;2022-07-18T03:18:53;102003.25;;;21.28;44.56
20630;BME280;17386;43.846;25.950;2022-07-18T03:21:19;102006.72;;;21.30;44.43
20630;BME280;17386;43.846;25.950;2022-07-18T03:23:45;102006.50;;;21.33;44.53
20630;BME280;17386;43.846;25.950;2022-07-18T03:26:10;102006.19;;;21.23;44.36
20630;BME280;17386;43.846;25.950;2022-07-18T03:28:35;102006.72;;;21.30;44.41
20630;BME280;17386;43.846;25.950;2022-07-18T03:31:01;102020.03;;;21.33;44.49
20630;BME280;17386;43.846;25.950;2022-07-18T03:33:26;102018.19;;;21.34;44.43
20630;BME280;17386;43.846;25.950;2022-07-18T03:35:52;102014.34;;;21.38;44.39
20630;BME280;17386;43.846;25.950;2022-07-18T03:38:17;102008.84;;;21.39;44.37
20630;BME280;17386;43.846;25.950;2022-07-18T03:40:43;102025.88;;;21.41;44.30
20630;BME280;17386;43.846;25.950;2022-07-18T03:43:08;102020.16;;;21.46;43.85
20630;BME280;17386;43.846;25.950;2022-07-18T03:45:34;102021.22;;;21.43;43.96
20630;BME280;17386;43.846;25.950;2022-07-18T03:47:59;102018.69;;;21.40;44.01
20630;BME280;17386;43.846;25.950;2022-07-18T03:50:25;102012.41;;;21.40;43.97
20630;BME280;17386;43.846;25.950;2022-07-18T03:52:50;102022.47;;;21.38;44.23
20630;BME280;17386;43.846;25.950;2022-07-18T03:55:16;102024.09;;;21.40;44.34
20630;BME280;17386;43.846;25.950;2022-07-18T03:57:41;102022.97;;;21.44;44.34
20630;BME280;17386;43.846;25.950;2022-07-18T04:00:07;102024.91;;;21.42;44.68
20630;BME280;17386;43.846;25.950;2022-07-18T04:02:37;102027.50;;;21.44;44.84
20630;BME280;17386;43.846;25.950;2022-07-18T04:05:03;102029.34;;;21.43;44.74
20630;BME280;17386;43.846;25.950;2022-07-18T04:07:29;102027.91;;;21.52;45.01
20630;BME280;17386;43.846;25.950;2022-07-18T04:09:54;102029.94;;;21.48;44.96
20630;BME280;17386;43.846;25.950;2022-07-18T04:12:19;102025.78;;;21.57;44.99
20630;BME280;17386;43.846;25.950;2022-07-18T04:14:45;102031.97;;;21.59;45.04
20630;BME280;17386;43.846;25.950;2022-07-18T04:17:10;102027.41;;;21.60;44.93
20630;BME280;17386;43.846;25.950;2022-07-18T04:19:36;102025.09;;;21.68;44.90
20630;BME280;17386;43.846;25.950;2022-07-18T04:22:01;102030.13;;;21.74;44.91
20630;BME280;17386;43.846;25.950;2022-07-18T04:24:27;102032.56;;;21.78;44.86
20630;BME280;17386;43.846;25.950;2022-07-18T04:26:52;102040.19;;;21.86;44.32
20630;BME280;17386;43.846;25.950;2022-07-18T04:29:17;102038.19;;;21.90;44.29
20630;BME280;17386;43.846;25.950;2022-07-18T04:31:43;102029.16;;;21.89;44.33
20630;BME280;17386;43.846;25.950;2022-07-18T04:34:08;102032.94;;;21.87;44.54
20630;BME280;17386;43.846;25.950;2022-07-18T04:36:34;102031.00;;;21.74;44.12
20630;BME280;17386;43.846;25.950;2022-07-18T04:38:59;102034.50;;;21.76;44.20
20630;BME280;17386;43.846;25.950;2022-07-18T04:41:25;102034.78;;;21.72;44.57
20630;BME280;17386;43.846;25.950;2022-07-18T04:43:51;102031.69;;;21.64;44.35
20630;BME280;17386;43.846;25.950;2022-07-18T04:46:16;102036.78;;;21.68;44.39
20630;BME280;17386;43.846;25.950;2022-07-18T04:48:42;102031.88;;;21.75;44.42
20630;BME280;17386;43.846;25.950;2022-07-18T04:51:07;102030.53;;;21.82;44.70
20630;BME280;17386;43.846;25.950;2022-07-18T04:53:33;102035.56;;;21.88;44.68
20630;BME280;17386;43.846;25.950;2022-07-18T04:55:58;102038.66;;;21.96;44.10
20630;BME280;17386;43.846;25.950;2022-07-18T04:58:24;102050.84;;;22.03;43.74
20630;BME280;17386;43.846;25.950;2022-07-18T05:00:49;102046.59;;;22.14;43.91
20630;BME280;17386;43.846;25.950;2022-07-18T05:03:15;102045.06;;;22.24;43.45
20630;BME280;17386;43.846;25.950;2022-07-18T05:05:40;102040.91;;;22.18;43.54
20630;BME280;17386;43.846;25.950;2022-07-18T05:08:06;102051.25;;;22.26;43.84
20630;BME280;17386;43.846;25.950;2022-07-18T05:10:32;102049.88;;;22.33;43.20
20630;BME280;17386;43.846;25.950;2022-07-18T05:12:57;102049.59;;;22.37;43.19
20630;BME280;17386;43.846;25.950;2022-07-18T05:15:24;102050.25;;;22.41;42.89
20630;BME280;17386;43.846;25.950;2022-07-18T05:17:50;102055.84;;;22.52;43.31
20630;BME280;17386;43.846;25.950;2022-07-18T05:20:20;102068.03;;;22.59;43.55
20630;BME280;17386;43.846;25.950;2022-07-18T05:22:46;102060.53;;;22.63;43.10
20630;BME280;17386;43.846;25.950;2022-07-18T05:25:12;102071.38;;;22.63;43.25
20630;BME280;17386;43.846;25.950;2022-07-18T05:27:38;102075.53;;;22.69;43.28
20630;BME280;17386;43.846;25.950;2022-07-18T05:30:06;102078.59;;;22.77;43.27
20630;BME280;17386;43.846;25.950;2022-07-18T05:32:32;102082.28;;;22.90;42.66
20630;BME280;17386;43.846;25.950;2022-07-18T05:34:57;102083.47;;;22.86;42.01
20630;BME280;17386;43.846;25.950;2022-07-18T05:37:23;102081.00;;;22.96;41.50
20630;BME280;17386;43.846;25.950;2022-07-18T05:39:49;102079.38;;;22.93;41.03
20630;BME280;17386;43.846;25.950;2022-07-18T05:42:17;102087.50;;;22.93;40.85
20630;BME280;17386;43.846;25.950;2022-07-18T05:44:42;102085.25;;;23.00;40.31
20630;BME280;17386;43.846;25.950;2022-07-18T05:47:08;102082.03;;;23.07;39.34
20630;BME280;17386;43.846;25.950;2022-07-18T05:49:33;102093.88;;;23.19;39.58
20630;BME280;17386;43.846;25.950;2022-07-18T05:51:58;102088.97;;;23.11;38.69
20630;BME280;17386;43.846;25.950;2022-07-18T05:54:24;102092.19;;;23.04;38.92
20630;BME280;17386;43.846;25.950;2022-07-18T05:56:51;102091.53;;;23.00;38.78
20630;BME280;17386;43.846;25.950;2022-07-18T05:59:17;102088.50;;;23.05;39.13
20630;BME280;17386;43.846;25.950;2022-07-18T06:01:43;102086.59;;;23.07;38.51
20630;BME280;17386;43.846;25.950;2022-07-18T06:04:09;102094.97;;;23.16;38.60
20630;BME280;17386;43.846;25.950;2022-07-18T06:06:35;102082.31;;;23.30;38.45
20630;BME280;17386;43.846;25.950;2022-07-18T06:09:02;102086.34;;;23.37;38.03
20630;BME280;17386;43.846;25.950;2022-07-18T06:11:27;102076.91;;;23.42;37.26
20630;BME280;17386;43.846;25.950;2022-07-18T06:13:53;102088.97;;;23.51;37.42
20630;BME280;17386;43.846;25.950;2022-07-18T06:16:18;102087.69;;;23.57;36.82
20630;BME280;17386;43.846;25.950;2022-07-18T06:18:43;102093.41;;;23.52;36.73
20630;BME280;17386;43.846;25.950;2022-07-18T06:21:09;102089.66;;;23.55;36.25
20630;BME280;17386;43.846;25.950;2022-07-18T06:23:34;102096.03;;;23.54;36.60
20630;BME280;17386;43.846;25.950;2022-07-18T06:26:01;102088.78;;;23.54;36.47
20630;BME280;17386;43.846;25.950;2022-07-18T06:28:26;102088.72;;;23.68;36.10
20630;BME280;17386;43.846;25.950;2022-07-18T06:30:53;102091.44;;;23.68;36.01
20630;BME280;17386;43.846;25.950;2022-07-18T06:33:19;102102.13;;;23.57;35.24
20630;BME280;17386;43.846;25.950;2022-07-18T06:35:45;102113.94;;;23.56;35.88
20630;BME280;17386;43.846;25.950;2022-07-18T06:38:12;102107.16;;;23.63;34.80
20630;BME280;17386;43.846;25.950;2022-07-18T06:40:37;102100.75;;;23.77;35.19
20630;BME280;17386;43.846;25.950;2022-07-18T06:43:03;102107.63;;;23.83;35.19
20630;BME280;17386;43.846;25.950;2022-07-18T06:45:28;102113.25;;;23.92;35.48
20630;BME280;17386;43.846;25.950;2022-07-18T06:47:54;102110.44;;;23.94;35.00
20630;BME280;17386;43.846;25.950;2022-07-18T06:50:19;102108.69;;;23.80;34.94
20630;BME280;17386;43.846;25.950;2022-07-18T06:52:45;102110.00;;;23.74;35.35
20630;BME280;17386;43.846;25.950;2022-07-18T06:55:12;102106.84;;;23.68;35.38
20630;BME280;17386;43.846;25.950;2022-07-18T06:57:38;102095.53;;;23.74;35.66
20630;BME280;17386;43.846;25.950;2022-07-18T07:00:05;102094.47;;;23.89;35.53
20630;BME280;17386;43.846;25.950;2022-07-18T07:02:31;102094.38;;;23.91;35.30
20630;BME280;17386;43.846;25.950;2022-07-18T07:04:56;102095.56;;;23.99;35.46
20630;BME280;17386;43.846;25.950;2022-07-18T07:07:22;102100.25;;;24.10;35.62
20630;BME280;17386;43.846;25.950;2022-07-18T07:09:47;102108.56;;;24.20;35.15
20630;BME280;17386;43.846;25.950;2022-07-18T07:12:13;102101.63;;;24.28;35.05
20630;BME280;17386;43.846;25.950;2022-07-18T07:14:38;102101.88;;;24.38;34.86
20630;BME280;17386;43.846;25.950;2022-07-18T07:17:04;102096.56;;;24.37;34.79
20630;BME280;17386;43.846;25.950;2022-07-18T07:19:29;102097.06;;;24.42;34.87
20630;BME280;17386;43.846;25.950;2022-07-18T07:21:55;102097.31;;;24.39;34.93
20630;BME280;17386;43.846;25.950;2022-07-18T07:24:21;102079.81;;;24.30;35.15
20630;BME280;17386;43.846;25.950;2022-07-18T07:26:46;102092.16;;;24.47;35.14
20630;BME280;17386;43.846;25.950;2022-07-18T07:29:12;102090.72;;;24.67;35.06
20630;BME280;17386;43.846;25.950;2022-07-18T07:31:38;102079.50;;;24.71;34.61
20630;BME280;17386;43.846;25.950;2022-07-18T07:34:03;102082.94;;;24.86;34.83
20630;BME280;17386;43.846;25.950;2022-07-18T07:36:29;102082.97;;;24.97;34.74
20630;BME280;17386;43.846;25.950;2022-07-18T07:38:54;102085.53;;;25.12;34.53
20630;BME280;17386;43.846;25.950;2022-07-18T07:41:20;102084.50;;;25.01;34.34
20630;BME280;17386;43.846;25.950;2022-07-18T07:43:46;102070.34;;;25.09;34.22
20630;BME280;17386;43.846;25.950;2022-07-18T07:46:11;102076.31;;;25.14;34.16
20630;BME280;17386;43.846;25.950;2022-07-18T07:48:38;102073.78;;;25.35;34.00
20630;BME280;17386;43.846;25.950;2022-07-18T07:51:04;102070.22;;;25.46;33.58
20630;BME280;17386;43.846;25.950;2022-07-18T07:53:30;102069.28;;;25.58;33.74
20630;BME280;17386;43.846;25.950;2022-07-18T07:55:55;102063.72;;;25.59;33.48
20630;BME280;17386;43.846;25.950;2022-07-18T07:58:21;102059.28;;;25.70;33.16
20630;BME280;17386;43.846;25.950;2022-07-18T08:00:46;102057.97;;;25.86;33.14
20630;BME280;17386;43.846;25.950;2022-07-18T08:03:12;102062.19;;;25.90;33.31
20630;BME280;17386;43.846;25.950;2022-07-18T08:05:44;102057.25;;;26.07;32.79
20630;BME280;17386;43.846;25.950;2022-07-18T08:08:09;102057.00;;;26.21;32.91
20630;BME280;17386;43.846;25.950;2022-07-18T08:10:35;102048.47;;;26.26;32.69
20630;BME280;17386;43.846;25.950;2022-07-18T08:13:00;102050.31;;;26.25;32.28
20630;BME280;17386;43.846;25.950;2022-07-18T08:15:26;102059.75;;;26.43;32.26
20630;BME280;17386;43.846;25.950;2022-07-18T08:17:52;102060.00;;;26.52;31.83
20630;BME280;17386;43.846;25.950;2022-07-18T08:20:18;102064.81;;;26.59;30.96
20630;BME280;17386;43.846;25.950;2022-07-18T08:25:23;102054.25;;;26.66;31.40
20630;BME280;17386;43.846;25.950;2022-07-18T08:27:49;102046.44;;;26.72;31.23
20630;BME280;17386;43.846;25.950;2022-07-18T08:30:15;102046.13;;;26.87;31.19
20630;BME280;17386;43.846;25.950;2022-07-18T08:32:40;102045.97;;;26.99;30.38
20630;BME280;17386;43.846;25.950;2022-07-18T08:35:06;102036.16;;;27.08;30.33
20630;BME280;17386;43.846;25.950;2022-07-18T08:37:32;102046.13;;;26.98;30.70
20630;BME280;17386;43.846;25.950;2022-07-18T08:39:57;102049.00;;;26.85;30.88
20630;BME280;17386;43.846;25.950;2022-07-18T08:42:25;102045.09;;;26.67;30.54
20630;BME280;17386;43.846;25.950;2022-07-18T08:44:54;102053.63;;;26.73;30.59
20630;BME280;17386;43.846;25.950;2022-07-18T08:47:21;102054.31;;;26.87;30.81
20630;BME280;17386;43.846;25.950;2022-07-18T08:49:47;102050.81;;;26.96;30.73
20630;BME280;17386;43.846;25.950;2022-07-18T08:52:14;102053.66;;;26.94;30.22
20630;BME280;17386;43.846;25.950;2022-07-18T08:54:40;102055.47;;;27.16;30.46
20630;BME280;17386;43.846;25.950;2022-07-18T08:57:05;102054.09;;;27.22;30.08
20630;BME280;17386;43.846;25.950;2022-07-18T08:59:31;102049.00;;;27.17;29.98
20630;BME280;17386;43.846;25.950;2022-07-18T09:01:56;102045.44;;;27.38;30.10
20630;BME280;17386;43.846;25.950;2022-07-18T09:04:36;102048.78;;;27.41;30.68
20630;BME280;17386;43.846;25.950;2022-07-18T09:07:02;102033.06;;;27.54;30.33
20630;BME280;17386;43.846;25.950;2022-07-18T09:09:29;102039.13;;;27.58;30.50
20630;BME280;17386;43.846;25.950;2022-07-18T09:11:57;102041.31;;;27.64;30.38
20630;BME280;17386;43.846;25.950;2022-07-18T09:14:28;102042.88;;;27.78;30.32
20630;BME280;17386;43.846;25.950;2022-07-18T09:17:14;102036.97;;;27.73;30.06
20630;BME280;17386;43.846;25.950;2022-07-18T09:19:42;102027.00;;;27.72;29.80
20630;BME280;17386;43.846;25.950;2022-07-18T09:22:16;102029.88;;;27.70;29.98
20630;BME280;17386;43.846;25.950;2022-07-18T09:24:53;102033.88;;;27.66;30.43
20630;BME280;17386;43.846;25.950;2022-07-18T09:27:30;102032.47;;;27.72;30.26
20630;BME280;17386;43.846;25.950;2022-07-18T09:32:53;102031.22;;;27.76;29.93
20630;BME280;17386;43.846;25.950;2022-07-18T09:35:22;102026.25;;;27.91;29.69
20630;BME280;17386;43.846;25.950;2022-07-18T09:37:57;102031.66;;;28.02;29.32
20630;BME280;17386;43.846;25.950;2022-07-18T09:40:28;102030.09;;;28.09;28.97
20630;BME280;17386;43.846;25.950;2022-07-18T09:42:57;102030.88;;;28.21;28.55
20630;BME280;17386;43.846;25.950;2022-07-18T09:45:25;102028.75;;;28.34;28.27
20630;BME280;17386;43.846;25.950;2022-07-18T09:48:12;102022.72;;;28.30;28.56
20630;BME280;17386;43.846;25.950;2022-07-18T09:53:16;102021.72;;;28.41;27.24
20630;BME280;17386;43.846;25.950;2022-07-18T09:55:50;102021.34;;;28.65;27.77
20630;BME280;17386;43.846;25.950;2022-07-18T09:58:26;102023.53;;;28.81;27.40
20630;BME280;17386;43.846;25.950;2022-07-18T10:00:53;102010.78;;;29.10;27.42
20630;BME280;17386;43.846;25.950;2022-07-18T10:03:20;102013.91;;;29.25;26.97
20630;BME280;17386;43.846;25.950;2022-07-18T10:05:47;102012.03;;;29.45;26.56
20630;BME280;17386;43.846;25.950;2022-07-18T10:08:16;102009.94;;;29.76;25.81
20630;BME280;17386;43.846;25.950;2022-07-18T10:10:45;102017.50;;;30.02;26.06
20630;BME280;17386;43.846;25.950;2022-07-18T10:13:14;102011.03;;;30.30;25.74
20630;BME280;17386;43.846;25.950;2022-07-18T10:15:42;102010.09;;;30.67;25.51
20630;BME280;17386;43.846;25.950;2022-07-18T10:18:10;102003.44;;;31.05;24.85
20630;BME280;17386;43.846;25.950;2022-07-18T10:23:11;102010.63;;;31.94;24.06
20630;BME280;17386;43.846;25.950;2022-07-18T10:25:38;102010.50;;;32.03;23.75
20630;BME280;17386;43.846;25.950;2022-07-18T10:28:07;102001.13;;;32.22;23.24
20630;BME280;17386;43.846;25.950;2022-07-18T10:30:38;102011.88;;;32.33;23.50
20630;BME280;17386;43.846;25.950;2022-07-18T10:33:36;102005.63;;;32.82;22.83
20630;BME280;17386;43.846;25.950;2022-07-18T10:36:08;102007.56;;;33.30;22.48
20630;BME280;17386;43.846;25.950;2022-07-18T10:38:34;102005.56;;;33.88;22.03
20630;BME280;17386;43.846;25.950;2022-07-18T10:41:05;101991.78;;;34.04;21.90
20630;BME280;17386;43.846;25.950;2022-07-18T10:43:32;102005.16;;;34.54;21.32
20630;BME280;17386;43.846;25.950;2022-07-18T10:45:59;101989.34;;;35.17;20.45
20630;BME280;17386;43.846;25.950;2022-07-18T10:51:13;102001.53;;;35.60;19.88
20630;BME280;17386;43.846;25.950;2022-07-18T10:59:14;101978.84;;;35.80;19.30
20630;BME280;17386;43.846;25.950;2022-07-18T11:01:48;101978.94;;;36.16;19.11
20630;BME280;17386;43.846;25.950;2022-07-18T11:04:29;101975.41;;;36.22;19.75
20630;BME280;17386;43.846;25.950;2022-07-18T11:07:11;101980.25;;;36.35;19.11
20630;BME280;17386;43.846;25.950;2022-07-18T11:12:28;101970.38;;;36.11;19.23
20630;BME280;17386;43.846;25.950;2022-07-18T11:15:06;101972.72;;;36.29;19.17
20630;BME280;17386;43.846;25.950;2022-07-18T11:20:41;101957.91;;;36.73;18.56
20630;BME280;17386;43.846;25.950;2022-07-18T11:25:40;101950.66;;;35.99;19.42
20630;BME280;17386;43.846;25.950;2022-07-18T11:28:09;101949.88;;;35.46;20.20
20630;BME280;17386;43.846;25.950;2022-07-18T11:30:36;101942.34;;;35.55;20.22
20630;BME280;17386;43.846;25.950;2022-07-18T11:33:02;101945.78;;;35.57;21.16
20630;BME280;17386;43.846;25.950;2022-07-18T11:35:29;101950.28;;;35.43;19.87
20630;BME280;17386;43.846;25.950;2022-07-18T11:37:54;101943.75;;;34.98;20.42
20630;BME280;17386;43.846;25.950;2022-07-18T11:40:21;101936.88;;;34.48;20.78
20630;BME280;17386;43.846;25.950;2022-07-18T11:42:47;101944.38;;;33.37;22.70
20630;BME280;17386;43.846;25.950;2022-07-18T11:45:14;101931.13;;;32.83;23.58
20630;BME280;17386;43.846;25.950;2022-07-18T11:47:50;101928.81;;;32.30;23.85
20630;BME280;17386;43.846;25.950;2022-07-18T11:50:17;101926.63;;;31.91;24.63
20630;BME280;17386;43.846;25.950;2022-07-18T11:52:44;101933.28;;;31.80;24.67
20630;BME280;17386;43.846;25.950;2022-07-18T11:55:13;101935.56;;;31.33;24.70
20630;BME280;17386;43.846;25.950;2022-07-18T11:57:39;101942.56;;;31.27;24.78
20630;BME280;17386;43.846;25.950;2022-07-18T12:00:16;101928.41;;;31.22;25.15
20630;BME280;17386;43.846;25.950;2022-07-18T12:03:20;101924.38;;;31.09;25.20
20630;BME280;17386;43.846;25.950;2022-07-18T12:05:52;101914.19;;;30.75;25.24
20630;BME280;17386;43.846;25.950;2022-07-18T12:08:51;101918.41;;;30.69;26.55
20630;BME280;17386;43.846;25.950;2022-07-18T12:11:32;101911.00;;;30.52;26.35
20630;BME280;17386;43.846;25.950;2022-07-18T12:16:42;101906.25;;;30.09;26.76
20630;BME280;17386;43.846;25.950;2022-07-18T12:19:17;101912.66;;;30.00;26.39
20630;BME280;17386;43.846;25.950;2022-07-18T12:21:51;101901.75;;;29.62;27.26
20630;BME280;17386;43.846;25.950;2022-07-18T12:24:30;101905.31;;;29.73;27.34
20630;BME280;17386;43.846;25.950;2022-07-18T12:27:16;101896.31;;;29.80;27.24
20630;BME280;17386;43.846;25.950;2022-07-18T12:29:55;101897.47;;;29.78;26.35
20630;BME280;17386;43.846;25.950;2022-07-18T12:32:25;101898.34;;;29.78;26.41
20630;BME280;17386;43.846;25.950;2022-07-18T12:35:02;101897.19;;;29.81;26.82
20630;BME280;17386;43.846;25.950;2022-07-18T12:37:28;101895.97;;;29.93;26.73
20630;BME280;17386;43.846;25.950;2022-07-18T12:40:15;101886.31;;;29.89;26.06
20630;BME280;17386;43.846;25.950;2022-07-18T12:42:41;101890.75;;;29.72;26.53
20630;BME280;17386;43.846;25.950;2022-07-18T12:45:11;101891.25;;;29.48;26.91
20630;BME280;17386;43.846;25.950;2022-07-18T12:47:38;101893.28;;;29.46;26.31
20630;BME280;17386;43.846;25.950;2022-07-18T12:50:05;101883.63;;;29.42;26.56
20630;BME280;17386;43.846;25.950;2022-07-18T12:52:31;101891.16;;;29.30;26.99
20630;BME280;17386;43.846;25.950;2022-07-18T12:54:56;101891.56;;;29.45;26.74
20630;BME280;17386;43.846;25.950;2022-07-18T12:57:22;101890.38;;;29.48;27.02
20630;BME280;17386;43.846;25.950;2022-07-18T12:59:47;101892.13;;;29.58;27.13
20630;BME280;17386;43.846;25.950;2022-07-18T13:02:14;101885.06;;;29.46;26.65
20630;BME280;17386;43.846;25.950;2022-07-18T13:04:40;101893.56;;;29.53;26.92
20630;BME280;17386;43.846;25.950;2022-07-18T13:07:06;101889.97;;;29.42;26.65
20630;BME280;17386;43.846;25.950;2022-07-18T13:09:32;101888.84;;;29.35;26.89
20630;BME280;17386;43.846;25.950;2022-07-18T13:12:01;101886.56;;;29.31;27.16